Weather at Alliance Municipal Airport

Public forecast

Using degrees Fahrenheit for public forecast. Weather courtesy of forecast.io.

Current aviation weather report (METAR) for Alliance Municipal Airport

2024/05/28 23:53 (retrieved 8 minutes ago)

KAIA 282353Z AUTO 12006KT 10SM CLR 24/07 A3013 RMK AO2 SLP184 T02440067 10256 20217 58015

Closest aviation forecast (TAF) to Alliance Municipal Airport

Closest forecast is Ellsworth Air Force Base, 126.3 nm (233.9 km) N.

2024/05/28 19:06 (retrieved 5 hours ago)

TAF KRCA 281900Z 2819/3001 VRB06KT 9999 FEW080 QNH3014INS BECMG 2908/2909 16009KT 9999 FEW060 SCT160 QNH3003INS BECMG 2913/2914 17012G20KT 9999 FEW060 SCT160 QNH2994INS BECMG 2916/2917 18020G30KT 9999 SCT060 BKN150 QNH2985INS BECMG 2920/2921 18020G30KT 9999 VCTS BKN050CB QNH2980INS TEMPO 2920/3001 23025G35KT 4800 +TSRAGR BKN050CB TX27/2919Z TN11/2911Z